Time;durP1;ratioP1;P1;durP2;ratioP2;P2;SDS_P1;SDS_P2;PMS_P1;PMS_P2;Temp;Humidity;BMP_temperature;BMP_pressure;BME280_temperature;BME280_humidity;BME280_pressure;Samples;Min_cycle;Max_cycle;Signal;HPM_P1;HPM_P2
2022/03/12 00:01:47;;;;;;;;;;;;;;;-144.19;48.94;77719.09;6156694;23;20256;-84
2022/03/12 00:04:14;;;;;;;;;;;;;;;-144.19;48.30;77709.25;6181748;23;19916;-83
2022/03/12 00:06:40;;;;;;;;;;;;;;;-144.19;47.86;77699.41;6183055;23;19916;-84
2022/03/12 00:09:07;;;;;;;;;;;;;;;-144.19;47.53;77695.47;6184778;23;19943;-83
2022/03/12 00:11:40;;;;;;;;;;;;;;;-144.19;47.17;77693.50;6157649;23;20074;-84
2022/03/12 00:14:07;;;;;;;;;;;;;;;-144.19;47.34;77697.44;6210256;23;19938;-84
2022/03/12 00:16:34;;;;;;;;;;;;;;;-144.19;46.78;77693.50;6214970;23;19922;-87
2022/03/12 00:19:03;;;;;;;;;;;;;;;-144.19;47.39;77699.41;6215608;23;19924;-84
2022/03/12 00:21:33;;;;;;;;;;;;;;;-144.19;48.34;77721.06;6189069;23;19926;-83
2022/03/12 00:24:00;;;;;;;;;;;;;;;-144.19;50.76;77772.25;6215214;23;19920;-85
2022/03/12 00:26:29;;;;;;;;;;;;;;;-144.19;52.59;77811.63;6189349;23;19916;-86
2022/03/12 00:28:56;;;;;;;;;;;;;;;-144.19;52.61;77805.72;6216485;23;19916;-86
2022/03/12 00:31:23;;;;;;;;;;;;;;;-144.19;54.09;77805.72;6189486;23;19920;-84
2022/03/12 00:33:49;;;;;;;;;;;;;;;-144.19;53.35;77835.25;6188406;23;19950;-84
2022/03/12 00:36:17;;;;;;;;;;;;;;;-144.19;52.36;77831.31;6215880;23;19939;-84
2022/03/12 00:38:46;;;;;;;;;;;;;;;-144.19;52.96;77819.50;6215473;23;19987;-84
2022/03/12 00:41:13;;;;;;;;;;;;;;;-144.19;51.83;77795.88;6215587;23;19915;-83
2022/03/12 00:43:40;;;;;;;;;;;;;;;-144.19;51.89;77788.00;6188224;23;19915;-85
2022/03/12 00:46:06;;;;;;;;;;;;;;;-144.19;50.68;77776.19;6189461;23;19938;-85
2022/03/12 00:48:34;;;;;;;;;;;;;;;-144.19;49.37;77768.31;6189210;23;20077;-84
2022/03/12 00:51:05;;;;;;;;;;;;;;;-144.19;50.82;77778.16;6215702;23;20302;-84
2022/03/12 00:53:31;;;;;;;;;;;;;;;-144.19;50.73;77788.00;6187965;23;19916;-84
2022/03/12 00:55:57;;;;;;;;;;;;;;;-144.19;50.85;77788.00;6215936;23;19916;-84
2022/03/12 00:58:23;;;;;;;;;;;;;;;-144.19;51.07;77784.06;6189000;23;19922;-84
2022/03/12 01:00:50;;;;;;;;;;;;;;;-144.19;50.60;77780.13;6215481;23;19915;-86
2022/03/12 01:03:16;;;;;;;;;;;;;;;-144.19;51.56;77786.03;6188529;23;20311;-83
2022/03/12 01:05:49;;;;;;;;;;;;;;;-144.19;51.97;77791.94;6188816;23;19922;-85
2022/03/12 01:08:16;;;;;;;;;;;;;;;-144.19;52.28;77813.59;6189103;23;20354;-85
2022/03/12 01:10:43;;;;;;;;;;;;;;;-144.19;52.23;77815.56;6188283;23;19916;-84
2022/03/12 01:13:10;;;;;;;;;;;;;;;-144.19;53.84;77823.44;6214412;23;19920;-83
2022/03/12 01:15:38;;;;;;;;;;;;;;;-144.19;50.43;77784.06;6188753;23;19922;-85
2022/03/12 01:18:09;;;;;;;;;;;;;;;-144.19;48.33;77772.25;6189635;23;20260;-84
2022/03/12 01:20:35;;;;;;;;;;;;;;;-144.19;47.73;77764.38;6188377;23;19958;-84
2022/03/12 01:23:01;;;;;;;;;;;;;;;-144.19;47.33;77762.41;6187921;23;19923;-84
2022/03/12 01:25:28;;;;;;;;;;;;;;;-144.19;47.37;77760.44;6215250;23;19915;-84
2022/03/12 01:27:54;;;;;;;;;;;;;;;-144.19;47.42;77760.44;6188755;23;19939;-85
2022/03/12 01:30:25;;;;;;;;;;;;;;;-144.19;46.25;77752.56;6188339;23;19916;-83
2022/03/12 01:32:51;;;;;;;;;;;;;;;-144.19;47.26;77750.59;6214183;23;19920;-84
2022/03/12 01:35:18;;;;;;;;;;;;;;;-144.19;46.71;77748.63;6215223;23;19922;-83
2022/03/12 01:37:44;;;;;;;;;;;;;;;-144.19;46.33;77736.81;6214930;23;19916;-83
2022/03/12 01:40:11;;;;;;;;;;;;;;;-144.19;45.31;77732.88;6189221;23;19919;-84
2022/03/12 01:42:38;;;;;;;;;;;;;;;-144.19;44.27;77719.09;6187512;23;19916;-82
2022/03/12 01:45:09;;;;;;;;;;;;;;;-144.19;44.26;77715.16;6188766;23;19915;-85
2022/03/12 01:47:35;;;;;;;;;;;;;;;-144.19;44.22;77721.06;6188275;23;20325;-85
2022/03/12 01:50:04;;;;;;;;;;;;;;;-144.19;43.33;77697.44;6214641;23;19999;-85
2022/03/12 01:52:31;;;;;;;;;;;;;;;-144.19;43.03;77705.31;6186990;23;19916;-83
2022/03/12 01:54:57;;;;;;;;;;;;;;;-144.19;43.22;77701.38;6188914;23;19915;-84
2022/03/12 01:57:24;;;;;;;;;;;;;;;-144.19;42.94;77701.38;6188521;23;19916;-87
2022/03/12 01:59:51;;;;;;;;;;;;;;;-144.19;42.47;77689.56;6188195;23;19916;-86
2022/03/12 02:02:17;;;;;;;;;;;;;;;-144.19;42.30;77705.31;6187070;23;19915;-84
2022/03/12 02:04:49;;;;;;;;;;;;;;;-144.19;42.03;77691.53;6188217;23;20340;-82
2022/03/12 02:07:16;;;;;;;;;;;;;;;-144.19;41.33;77683.66;6187853;23;19916;-86
2022/03/12 02:09:44;;;;;;;;;;;;;;;-144.19;41.37;77679.72;6187472;23;20320;-86
2022/03/12 02:12:11;;;;;;;;;;;;;;;-144.19;40.89;77669.88;6213071;23;19923;-84
2022/03/12 02:14:37;;;;;;;;;;;;;;;-144.19;41.24;77677.75;6214024;23;19916;-81
2022/03/12 02:17:07;;;;;;;;;;;;;;;-144.19;41.33;77689.56;6214040;23;19962;-85
2022/03/12 02:19:35;;;;;;;;;;;;;;;-144.19;40.63;77681.69;6213845;23;19916;-83
2022/03/12 02:22:03;;;;;;;;;;;;;;;-144.19;41.01;77693.50;6186053;23;19923;-85
2022/03/12 02:24:30;;;;;;;;;;;;;;;-144.19;40.55;77693.50;6187679;23;19920;-83
2022/03/12 02:26:58;;;;;;;;;;;;;;;-144.19;40.36;77677.75;6214237;23;19916;-83
2022/03/12 02:29:25;;;;;;;;;;;;;;;-144.19;39.91;77689.56;6213738;23;19915;-84
2022/03/12 02:31:53;;;;;;;;;;;;;;;-144.19;39.36;77685.63;6212853;23;19916;-84
2022/03/12 02:34:23;;;;;;;;;;;;;;;-144.19;39.62;77689.56;6186602;23;20021;-84
2022/03/12 02:36:51;;;;;;;;;;;;;;;-144.19;39.81;77695.47;6186962;23;19919;-83
2022/03/12 02:39:19;;;;;;;;;;;;;;;-144.19;39.82;77701.38;6213210;23;19950;-82
2022/03/12 02:41:46;;;;;;;;;;;;;;;-144.19;39.60;77693.50;6213094;23;19963;-83
2022/03/12 02:44:17;;;;;;;;;;;;;;;-144.19;39.68;77697.44;6213124;23;20599;-83
2022/03/12 02:47:04;;;;;;;;;;;;;;;-144.19;39.64;77697.44;6187278;23;20084;-82
2022/03/12 02:49:31;;;;;;;;;;;;;;;-144.19;39.83;77697.44;6187290;23;19919;-83
2022/03/12 02:51:58;;;;;;;;;;;;;;;-144.19;39.40;77703.34;6212398;23;19916;-83
2022/03/12 02:54:24;;;;;;;;;;;;;;;-144.19;39.67;77705.31;6186590;23;19915;-84
2022/03/12 02:56:51;;;;;;;;;;;;;;;-144.19;39.31;77693.50;6187171;23;19923;-84
2022/03/12 02:59:17;;;;;;;;;;;;;;;-144.19;39.48;77693.50;6187382;23;19922;-82
2022/03/12 03:01:44;;;;;;;;;;;;;;;-144.19;39.40;77705.31;6186987;23;19915;-84
2022/03/12 03:04:11;;;;;;;;;;;;;;;-144.19;39.64;77705.31;6212435;23;19966;-84
2022/03/12 03:06:38;;;;;;;;;;;;;;;-144.19;38.79;77697.44;6187522;23;19915;-84
2022/03/12 03:09:04;;;;;;;;;;;;;;;-144.19;39.32;77705.31;6186722;23;19943;-83
2022/03/12 03:11:35;;;;;;;;;;;;;;;-144.19;39.30;77707.28;6212479;23;20382;-86
2022/03/12 03:14:02;;;;;;;;;;;;;;;-144.19;38.90;77705.31;6211966;23;19916;-83
2022/03/12 03:16:30;;;;;;;;;;;;;;;-144.19;39.42;77715.16;6186612;23;19923;-84
2022/03/12 03:18:57;;;;;;;;;;;;;;;-144.19;39.40;77728.94;6213292;23;19916;-84
2022/03/12 03:21:24;;;;;;;;;;;;;;;-144.19;39.56;77732.88;6213023;23;19991;-83
2022/03/12 03:23:51;;;;;;;;;;;;;;;-144.19;39.85;77736.81;6186227;23;19916;-82
2022/03/12 03:26:21;;;;;;;;;;;;;;;-144.19;40.03;77734.84;6212947;23;20363;-84
2022/03/12 03:28:48;;;;;;;;;;;;;;;-144.19;39.63;77740.75;6187304;23;20252;-82
2022/03/12 03:31:15;;;;;;;;;;;;;;;-144.19;39.80;77732.88;6212306;23;19915;-84
2022/03/12 03:33:41;;;;;;;;;;;;;;;-144.19;39.62;77732.88;6212192;23;19938;-84
2022/03/12 03:36:07;;;;;;;;;;;;;;;-144.19;39.81;77738.78;6212878;23;20325;-83
2022/03/12 03:38:34;;;;;;;;;;;;;;;-144.19;39.66;77730.91;6213305;23;19922;-83
2022/03/12 03:41:00;;;;;;;;;;;;;;;-144.19;39.79;77738.78;6186336;23;19916;-82
2022/03/12 03:43:26;;;;;;;;;;;;;;;-144.19;39.63;77744.69;6212139;23;19922;-83
2022/03/12 03:45:56;;;;;;;;;;;;;;;-144.19;39.92;77752.56;6187400;23;19916;-84
2022/03/12 03:48:28;;;;;;;;;;;;;;;-144.19;39.92;77756.50;6187995;23;19923;-84
2022/03/12 03:50:54;;;;;;;;;;;;;;;-144.19;40.37;77756.50;6187793;23;19938;-84
2022/03/12 03:53:21;;;;;;;;;;;;;;;-144.19;39.91;77760.44;6213584;23;19923;-84
2022/03/12 03:55:48;;;;;;;;;;;;;;;-144.19;40.03;77760.44;6215105;23;19922;-83
2022/03/12 03:58:15;;;;;;;;;;;;;;;-144.19;39.56;77756.50;6188463;23;20370;-82
2022/03/12 04:00:50;;;;;;;;;;;;;;;-144.19;39.85;77758.47;6215240;23;19915;-85
2022/03/12 04:03:18;;;;;;;;;;;;;;;-144.19;39.70;77756.50;6213807;23;19915;-84
2022/03/12 04:05:45;;;;;;;;;;;;;;;-144.19;39.62;77762.41;6188626;23;19942;-83
2022/03/12 04:08:11;;;;;;;;;;;;;;;-144.19;39.69;77750.59;6188428;23;19920;-84
2022/03/12 04:10:39;;;;;;;;;;;;;;;-144.19;39.82;77760.44;6214306;23;19916;-84
2022/03/12 04:13:16;;;;;;;;;;;;;;;-144.19;40.35;77758.47;6213556;23;20255;-83
2022/03/12 04:15:43;;;;;;;;;;;;;;;-144.19;40.15;77766.34;6188384;23;20332;-83
2022/03/12 04:18:09;;;;;;;;;;;;;;;-144.19;39.52;77764.38;6189302;23;19920;-83
2022/03/12 04:20:36;;;;;;;;;;;;;;;-144.19;39.90;77768.31;6188476;23;20264;-85
2022/03/12 04:23:02;;;;;;;;;;;;;;;-144.19;40.30;77772.25;6188051;23;19915;-82
2022/03/12 04:25:31;;;;;;;;;;;;;;;-144.19;40.11;77772.25;6188088;23;20299;-83
2022/03/12 04:27:57;;;;;;;;;;;;;;;-144.19;40.58;77774.22;6189238;23;19922;-82
2022/03/12 04:30:24;;;;;;;;;;;;;;;-144.19;40.02;77770.28;6188969;23;19915;-84
2022/03/12 04:32:50;;;;;;;;;;;;;;;-144.19;40.41;77784.06;6186670;23;19998;-84
2022/03/12 04:35:18;;;;;;;;;;;;;;;-144.19;40.37;77793.91;6188881;23;19915;-84
2022/03/12 04:37:44;;;;;;;;;;;;;;;-144.19;40.88;77791.94;6188591;23;19922;-83
2022/03/12 04:40:14;;;;;;;;;;;;;;;-144.19;40.70;77789.97;6214585;23;20241;-84
2022/03/12 04:42:44;;;;;;;;;;;;;;;-144.19;40.51;77795.88;6214127;23;19922;-84
2022/03/12 04:45:13;;;;;;;;;;;;;;;-144.19;40.23;77801.78;6214430;23;19922;-84
2022/03/12 04:47:45;;;;;;;;;;;;;;;-144.19;40.83;77803.75;6187880;23;20368;-81
2022/03/12 04:50:12;;;;;;;;;;;;;;;-144.19;41.37;77813.59;6189550;23;19922;-83
2022/03/12 04:52:40;;;;;;;;;;;;;;;-144.19;40.59;77807.69;6214740;23;19916;-84
2022/03/12 04:55:08;;;;;;;;;;;;;;;-144.19;41.34;77803.75;6216248;23;19922;-86
2022/03/12 04:57:36;;;;;;;;;;;;;;;-144.19;40.71;77807.69;6215711;23;19922;-84
2022/03/12 05:00:03;;;;;;;;;;;;;;;-144.19;41.38;77807.69;6190002;23;19926;-84
2022/03/12 05:02:30;;;;;;;;;;;;;;;-144.19;41.16;77811.63;6214712;23;19920;-86
2022/03/12 05:04:56;;;;;;;;;;;;;;;-144.19;41.19;77811.63;6189932;23;19920;-84
2022/03/12 05:07:24;;;;;;;;;;;;;;;-144.19;41.56;77811.63;6189130;23;19915;-82
2022/03/12 05:09:51;;;;;;;;;;;;;;;-144.19;41.17;77815.56;6215087;23;19924;-84
2022/03/12 05:12:17;;;;;;;;;;;;;;;-144.19;41.11;77815.56;6200802;23;19921;-88
2022/03/12 05:14:48;;;;;;;;;;;;;;;-144.19;42.12;77811.63;6144988;23;20507;-89
2022/03/12 05:17:15;;;;;;;;;;;;;;;-144.19;41.46;77813.59;6142123;23;19916;-89
2022/03/12 05:19:42;;;;;;;;;;;;;;;-144.19;41.65;77809.66;6169001;23;19927;-88
2022/03/12 05:22:09;;;;;;;;;;;;;;;-144.19;41.43;77811.63;6145967;23;19957;-89
2022/03/12 05:24:35;;;;;;;;;;;;;;;-144.19;42.33;77813.59;6198384;23;19956;-89
2022/03/12 05:27:02;;;;;;;;;;;;;;;-144.19;42.50;77815.56;6199817;23;19920;-89
2022/03/12 05:29:30;;;;;;;;;;;;;;;-144.19;41.83;77815.56;6201145;23;20252;-89
2022/03/12 05:31:56;;;;;;;;;;;;;;;-144.19;41.89;77823.44;6199273;23;19955;-88
2022/03/12 05:34:23;;;;;;;;;;;;;;;-144.19;42.75;77831.31;6200586;23;19916;-88
2022/03/12 05:36:51;;;;;;;;;;;;;;;-144.19;42.72;77831.31;6200624;23;19916;-88
2022/03/12 05:39:18;;;;;;;;;;;;;;;-144.19;42.70;77839.19;6199436;23;19916;-88
2022/03/12 05:41:45;;;;;;;;;;;;;;;-144.19;42.27;77847.09;6198457;23;19923;-89
2022/03/12 05:44:14;;;;;;;;;;;;;;;-144.19;42.39;77851.03;6197160;23;19983;-88
2022/03/12 05:46:41;;;;;;;;;;;;;;;-144.19;42.68;77851.03;6198145;23;20028;-88
2022/03/12 05:49:08;;;;;;;;;;;;;;;-144.19;42.29;77854.97;6199232;23;19983;-88
2022/03/12 05:51:36;;;;;;;;;;;;;;;-144.19;43.02;77856.94;6185166;23;20009;-87
2022/03/12 05:54:03;;;;;;;;;;;;;;;-144.19;42.85;77864.81;6185191;23;20406;-85
2022/03/12 05:56:29;;;;;;;;;;;;;;;-144.19;43.33;77866.78;6186933;23;19998;-87
2022/03/12 05:58:56;;;;;;;;;;;;;;;-144.19;43.61;77862.84;6184590;23;19916;-86
2022/03/12 06:01:23;;;;;;;;;;;;;;;-144.19;43.25;77874.66;6184672;23;19923;-86
2022/03/12 06:03:49;;;;;;;;;;;;;;;-144.19;42.96;77864.81;6186741;23;19916;-86
2022/03/12 06:06:16;;;;;;;;;;;;;;;-144.19;43.83;77866.78;6186046;23;19916;-86
2022/03/12 06:08:42;;;;;;;;;;;;;;;-144.19;43.67;77864.81;6187250;23;20241;-86
2022/03/12 06:11:10;;;;;;;;;;;;;;;-144.19;44.08;77866.78;6184870;23;19920;-86
2022/03/12 06:13:37;;;;;;;;;;;;;;;-144.19;44.16;77862.84;6183671;23;19917;-86
2022/03/12 06:16:04;;;;;;;;;;;;;;;-144.19;45.94;77868.75;6186630;23;20241;-85
2022/03/12 06:18:35;;;;;;;;;;;;;;;-144.19;46.01;77858.91;6185203;23;19963;-86
2022/03/12 06:21:03;;;;;;;;;;;;;;;-144.19;45.93;77858.91;6183771;23;19964;-86
2022/03/12 06:23:30;;;;;;;;;;;;;;;-144.19;48.52;77860.88;6183669;23;19926;-86
2022/03/12 06:25:57;;;;;;;;;;;;;;;-144.19;45.81;77858.91;6160715;23;19916;-86
2022/03/12 06:28:23;;;;;;;;;;;;;;;-144.19;45.37;77851.03;6186572;23;19916;-86
2022/03/12 06:30:53;;;;;;;;;;;;;;;-144.19;45.83;77845.13;6185171;23;19956;-86
2022/03/12 06:33:19;;;;;;;;;;;;;;;-144.19;45.60;77839.19;6185418;23;20457;-86
2022/03/12 06:35:46;;;;;;;;;;;;;;;-144.19;45.40;77833.28;6186846;23;19932;-86
2022/03/12 06:38:14;;;;;;;;;;;;;;;-144.19;47.14;77835.25;6185492;23;19926;-86
2022/03/12 06:40:40;;;;;;;;;;;;;;;-144.19;45.58;77827.38;6183038;23;19983;-86
2022/03/12 06:43:09;;;;;;;;;;;;;;;-144.19;44.64;77811.63;6182777;23;20237;-86
2022/03/12 06:45:36;;;;;;;;;;;;;;;-144.19;44.42;77803.75;6183829;23;19926;-86
2022/03/12 06:48:02;;;;;;;;;;;;;;;-144.19;44.67;77774.22;6184563;23;19920;-85
2022/03/12 06:50:28;;;;;;;;;;;;;;;-144.19;44.54;77786.03;6184198;23;19995;-86
2022/03/12 06:52:56;;;;;;;;;;;;;;;-144.19;44.94;77789.97;6180919;23;19924;-85
2022/03/12 06:55:23;;;;;;;;;;;;;;;-144.19;44.18;77788.00;6183321;23;19920;-85
2022/03/12 06:57:51;;;;;;;;;;;;;;;-144.19;44.25;77780.13;6181919;23;19943;-86
2022/03/12 07:00:18;;;;;;;;;;;;;;;-144.19;45.98;77789.97;6183110;23;19923;-85
2022/03/12 07:02:44;;;;;;;;;;;;;;;-144.19;44.76;77789.97;6182641;23;20067;-86
2022/03/12 07:05:11;;;;;;;;;;;;;;;-144.19;44.83;77788.00;6184082;23;19946;-87
2022/03/12 07:07:38;;;;;;;;;;;;;;;-144.19;44.68;77788.00;6185375;23;19927;-87
2022/03/12 07:10:05;;;;;;;;;;;;;;;-144.19;45.87;77786.03;6184272;23;19922;-86
2022/03/12 07:12:31;;;;;;;;;;;;;;;-144.19;44.99;77784.06;6182556;23;19916;-85
2022/03/12 07:14:58;;;;;;;;;;;;;;;-144.19;44.65;77786.03;6182229;23;19923;-85
2022/03/12 07:17:24;;;;;;;;;;;;;;;-144.19;45.78;77784.06;6183911;23;20351;-86
2022/03/12 07:19:50;;;;;;;;;;;;;;;-144.19;45.62;77793.91;6182236;23;19924;-86
2022/03/12 07:22:17;;;;;;;;;;;;;;;-144.19;45.33;77788.00;6181170;23;19926;-86
2022/03/12 07:24:43;;;;;;;;;;;;;;;-144.19;44.58;77774.22;6180415;23;19934;-85
2022/03/12 07:27:09;;;;;;;;;;;;;;;-144.19;45.06;77772.25;6185888;23;19920;-86
2022/03/12 07:29:36;;;;;;;;;;;;;;;-144.19;45.93;77774.22;6185971;23;19916;-86
2022/03/12 07:32:02;;;;;;;;;;;;;;;-144.19;45.27;77754.53;6184756;23;19916;-85
2022/03/12 07:34:28;;;;;;;;;;;;;;;-144.19;45.08;77754.53;6187275;23;19916;-86
2022/03/12 07:36:55;;;;;;;;;;;;;;;-144.19;45.03;77738.78;6184480;23;19922;-86
2022/03/12 07:39:21;;;;;;;;;;;;;;;-144.19;44.39;77721.06;6186885;23;19991;-87
2022/03/12 07:41:48;;;;;;;;;;;;;;;-144.19;44.20;77717.13;6185665;23;19990;-86
2022/03/12 07:44:14;;;;;;;;;;;;;;;-144.19;44.20;77701.38;6186034;23;19916;-87
2022/03/12 07:46:41;;;;;;;;;;;;;;;-144.19;43.89;77685.63;6185963;23;19916;-86
2022/03/12 07:49:07;;;;;;;;;;;;;;;-144.19;44.10;77662.00;6188556;23;19975;-86
2022/03/12 07:51:33;;;;;;;;;;;;;;;-144.19;43.96;77675.78;6186493;23;20561;-84
2022/03/12 07:54:01;;;;;;;;;;;;;;;-144.19;42.76;77650.19;6185339;23;19923;-85
2022/03/12 07:56:27;;;;;;;;;;;;;;;-144.19;44.12;77642.31;6186748;23;19916;-87
2022/03/12 07:58:55;;;;;;;;;;;;;;;-144.19;43.97;77644.28;6184215;23;19962;-85
2022/03/12 08:01:21;;;;;;;;;;;;;;;-144.19;42.86;77622.63;6183915;23;19917;-85
2022/03/12 08:03:48;;;;;;;;;;;;;;;-144.19;43.77;77602.94;6183256;23;20460;-84
2022/03/12 08:06:15;;;;;;;;;;;;;;;-144.19;43.37;77602.94;6184115;23;20341;-84
2022/03/12 08:08:41;;;;;;;;;;;;;;;-144.19;43.31;77602.94;6183751;23;20297;-85
2022/03/12 08:11:28;;;;;;;;;;;;;;;-144.19;43.14;77599.00;6184058;23;19916;-87
2022/03/12 08:14:01;;;;;;;;;;;;;;;-144.19;43.40;77591.13;6183375;23;19943;-85
2022/03/12 08:16:30;;;;;;;;;;;;;;;-144.19;42.62;77549.75;6184633;23;20404;-86
2022/03/12 08:18:57;;;;;;;;;;;;;;;-144.19;42.94;77551.72;6185602;23;19923;-85
2022/03/12 08:21:24;;;;;;;;;;;;;;;-144.19;42.82;77543.84;6185935;23;19920;-84
2022/03/12 08:23:50;;;;;;;;;;;;;;;-144.19;42.86;77547.78;6183996;23;20424;-86
2022/03/12 08:26:18;;;;;;;;;;;;;;;-144.19;42.99;77512.34;6185612;23;19936;-86
2022/03/12 08:28:44;;;;;;;;;;;;;;;-144.19;43.92;77500.53;6184215;23;19955;-85
2022/03/12 08:31:11;;;;;;;;;;;;;;;-144.19;43.76;77478.88;6189004;23;19916;-83
2022/03/12 08:33:37;;;;;;;;;;;;;;;-144.19;44.21;77484.78;6187130;23;20267;-83
2022/03/12 08:36:05;;;;;;;;;;;;;;;-144.19;44.03;77478.88;6189739;23;19924;-85
2022/03/12 08:38:34;;;;;;;;;;;;;;;-144.19;44.86;77486.75;6200111;23;19947;-83
2022/03/12 08:41:02;;;;;;;;;;;;;;;-144.19;44.28;77461.16;6200440;23;19916;-84
2022/03/12 08:43:29;;;;;;;;;;;;;;;-144.19;44.22;77453.28;6199961;23;19916;-82
2022/03/12 08:46:00;;;;;;;;;;;;;;;-144.19;44.13;77439.50;6198829;23;19923;-85
2022/03/12 08:48:35;;;;;;;;;;;;;;;-144.19;45.08;77417.84;6202670;23;19916;-83
2022/03/12 08:51:09;;;;;;;;;;;;;;;-144.19;45.06;77411.94;6180373;23;19920;-83
2022/03/12 08:53:39;;;;;;;;;;;;;;;-144.19;44.74;77382.41;6204133;23;19916;-82
2022/03/12 08:56:15;;;;;;;;;;;;;;;-144.19;45.19;77354.84;6201658;23;19960;-83
2022/03/12 08:58:44;;;;;;;;;;;;;;;-144.19;46.25;77356.81;6200797;23;19920;-83
2022/03/12 09:01:18;;;;;;;;;;;;;;;-144.19;47.21;77346.97;6187243;23;19916;-83
2022/03/12 09:03:48;;;;;;;;;;;;;;;-144.19;48.36;77343.03;6189115;23;20297;-83
2022/03/12 09:06:35;;;;;;;;;;;;;;;-144.19;47.36;77315.47;6201529;23;19915;-84
2022/03/12 09:09:02;;;;;;;;;;;;;;;-144.19;49.75;77283.97;6206188;23;19981;-83
2022/03/12 09:11:29;;;;;;;;;;;;;;;-144.19;49.71;77280.03;6199977;23;19940;-83
2022/03/12 09:13:59;;;;;;;;;;;;;;;-144.19;50.26;77280.03;6201549;23;19935;-85
2022/03/12 09:16:30;;;;;;;;;;;;;;;-144.19;50.60;77287.91;6205460;23;19959;-84
2022/03/12 09:18:57;;;;;;;;;;;;;;;-144.19;50.38;77260.34;6205394;23;19916;-84
2022/03/12 09:21:28;;;;;;;;;;;;;;;-144.19;50.76;77256.41;6206016;23;19936;-84
2022/03/12 09:23:54;;;;;;;;;;;;;;;-144.19;52.14;77248.53;6205726;23;19927;-85
2022/03/12 09:26:24;;;;;;;;;;;;;;;-144.19;53.14;77246.56;6205999;23;19927;-85
2022/03/12 09:28:54;;;;;;;;;;;;;;;-144.19;51.96;77211.13;6206465;23;19916;-85
2022/03/12 09:31:22;;;;;;;;;;;;;;;-144.19;51.94;77211.13;6206397;23;19916;-85
2022/03/12 09:33:49;;;;;;;;;;;;;;;-144.19;53.13;77197.34;6205015;23;19923;-85
2022/03/12 09:36:30;;;;;;;;;;;;;;;-144.19;52.63;77173.72;6205187;23;19923;-85
2022/03/12 09:39:08;;;;;;;;;;;;;;;-144.19;53.46;77157.97;6204452;23;19916;-85
2022/03/12 09:41:41;;;;;;;;;;;;;;;-144.19;52.67;77150.09;6205063;23;19916;-84
2022/03/12 09:44:08;;;;;;;;;;;;;;;-144.19;53.24;77144.19;6203417;23;19975;-84
2022/03/12 09:46:35;;;;;;;;;;;;;;;-144.19;56.27;77134.34;6205687;23;19956;-84
2022/03/12 09:49:05;;;;;;;;;;;;;;;-144.19;56.03;77102.84;6203316;23;19905;-84
2022/03/12 09:51:37;;;;;;;;;;;;;;;-144.19;58.96;77094.97;6205962;23;19956;-84
2022/03/12 09:54:07;;;;;;;;;;;;;;;-144.19;56.97;77063.47;6204866;23;19939;-85
2022/03/12 09:56:42;;;;;;;;;;;;;;;-144.19;56.65;77043.78;6206205;23;19920;-85
2022/03/12 09:59:09;;;;;;;;;;;;;;;-144.19;57.87;77031.97;6204666;23;19927;-84
2022/03/12 10:01:37;;;;;;;;;;;;;;;-144.19;58.43;77000.47;6204479;23;19916;-83
2022/03/12 10:04:09;;;;;;;;;;;;;;;-144.19;59.28;76965.06;6179277;23;19916;-84
2022/03/12 10:06:36;;;;;;;;;;;;;;;-144.19;59.19;76957.19;6195358;23;19944;-84
2022/03/12 10:09:04;;;;;;;;;;;;;;;-144.19;57.06;76927.66;6205621;23;19934;-84
2022/03/12 10:11:36;;;;;;;;;;;;;;;-144.19;57.54;76925.69;6203700;23;19961;-86
2022/03/12 10:14:06;;;;;;;;;;;;;;;-144.19;58.22;76872.53;6204119;23;19917;-83
2022/03/12 10:16:36;;;;;;;;;;;;;;;-144.19;57.80;76860.72;6198963;23;19956;-84
2022/03/12 10:19:09;;;;;;;;;;;;;;;-144.19;57.00;76860.72;6204207;23;19939;-83
2022/03/12 10:21:42;;;;;;;;;;;;;;;-144.19;55.99;76839.06;6204255;23;19940;-84
2022/03/12 10:24:13;;;;;;;;;;;;;;;-144.19;55.32;76823.31;6203120;23;19912;-84
2022/03/12 10:26:42;;;;;;;;;;;;;;;-144.19;55.74;76797.72;6204409;23;19924;-85
2022/03/12 10:29:12;;;;;;;;;;;;;;;-144.19;56.28;76831.19;6200623;23;19916;-84
2022/03/12 10:31:40;;;;;;;;;;;;;;;-144.19;56.23;76819.38;6199147;23;19971;-84
2022/03/12 10:34:14;;;;;;;;;;;;;;;-144.19;56.02;76795.75;6203936;23;19916;-84
2022/03/12 10:37:27;;;;;;;;;;;;;;;-144.19;56.13;76866.63;6180769;23;19916;-84
2022/03/12 10:40:08;;;;;;;;;;;;;;;-144.19;57.86;76720.94;6204973;23;19920;-82
2022/03/12 10:42:36;;;;;;;;;;;;;;;-144.19;56.15;76717.00;6204067;23;19916;-85
2022/03/12 10:45:07;;;;;;;;;;;;;;;-144.19;55.02;76780.00;6204885;23;19912;-85
2022/03/12 10:47:55;;;;;;;;;;;;;;;-144.19;57.70;76841.03;6202678;23;19994;-84
2022/03/12 10:50:34;;;;;;;;;;;;;;;-144.19;57.08;76829.22;6177115;23;19935;-84
2022/03/12 10:53:10;;;;;;;;;;;;;;;-144.19;57.05;76776.06;6200778;23;19916;-85
2022/03/12 10:55:40;;;;;;;;;;;;;;;-144.19;56.07;76746.53;6201429;23;19940;-85
2022/03/12 10:58:15;;;;;;;;;;;;;;;-144.19;53.49;76606.78;6202869;23;19926;-82
2022/03/12 11:00:50;;;;;;;;;;;;;;;-144.19;56.24;76813.47;6201684;23;19942;-84
2022/03/12 11:03:20;;;;;;;;;;;;;;;-144.19;58.06;76646.16;6202738;23;19916;-85
2022/03/12 11:05:52;;;;;;;;;;;;;;;-144.19;53.88;76687.47;6203226;23;19947;-85
2022/03/12 11:08:23;;;;;;;;;;;;;;;-144.19;54.43;76709.13;6202478;23;19916;-84
2022/03/12 11:10:52;;;;;;;;;;;;;;;-144.19;56.24;76685.53;6200799;23;19996;-84
2022/03/12 11:13:26;;;;;;;;;;;;;;;-144.19;50.15;76425.69;6176537;23;19940;-85
2022/03/12 11:16:07;;;;;;;;;;;;;;;-144.19;50.02;76632.38;6130301;23;19916;-85
2022/03/12 11:18:34;;;;;;;;;;;;;;;-144.19;50.78;76504.41;6154264;23;19916;-85
2022/03/12 11:21:01;;;;;;;;;;;;;;;-144.19;49.59;76535.91;6129979;23;19916;-84
2022/03/12 11:23:31;;;;;;;;;;;;;;;-144.19;51.63;76382.38;6155484;23;19931;-84
2022/03/12 11:26:00;;;;;;;;;;;;;;;-144.19;48.77;76555.59;6179570;23;20372;-87
2022/03/12 11:28:29;;;;;;;;;;;;;;;-144.19;45.95;76305.63;6180060;23;19923;-85
2022/03/12 11:30:56;;;;;;;;;;;;;;;-144.19;48.73;76591.03;6173693;23;20265;-83
2022/03/12 11:33:25;;;;;;;;;;;;;;;-144.19;48.43;76618.59;6153452;23;19955;-85
2022/03/12 11:35:58;;;;;;;;;;;;;;;-144.19;48.91;76201.31;6178465;23;19917;-84
2022/03/12 11:38:25;;;;;;;;;;;;;;;-144.19;41.92;76128.47;6178280;23;19916;-87
2022/03/12 11:41:00;;;;;;;;;;;;;;;-144.19;45.11;76222.94;6156299;23;19938;-85
2022/03/12 11:43:30;;;;;;;;;;;;;;;-144.19;43.80;76228.84;6178879;23;20401;-87
2022/03/12 11:46:03;;;;;;;;;;;;;;;-144.19;43.92;76303.66;6157656;23;20226;-85
2022/03/12 11:48:31;;;;;;;;;;;;;;;-144.19;43.28;76197.38;6178121;23;19947;-84
2022/03/12 11:51:00;;;;;;;;;;;;;;;-144.19;44.97;76098.97;6179082;23;19917;-85
2022/03/12 11:53:26;;;;;;;;;;;;;;;-144.19;44.61;76409.94;6154652;23;20349;-82
2022/03/12 11:56:15;;;;;;;;;;;;;;;-144.19;46.86;76524.09;6174674;23;19916;-84
2022/03/12 11:58:45;;;;;;;;;;;;;;;-144.19;46.84;76486.72;6155082;23;19923;-84
2022/03/12 12:01:19;;;;;;;;;;;;;;;-144.19;49.71;76563.47;6178110;23;19916;-84
2022/03/12 12:03:50;;;;;;;;;;;;;;;-144.19;48.33;76280.03;6177747;23;19923;-85
2022/03/12 12:06:17;;;;;;;;;;;;;;;-144.19;47.25;76496.53;6179191;23;19964;-86
2022/03/12 12:08:43;;;;;;;;;;;;;;;-144.19;48.75;76528.03;6178271;23;20233;-83
2022/03/12 12:11:11;;;;;;;;;;;;;;;-144.19;48.56;76390.25;6178653;23;19995;-85
2022/03/12 12:13:40;;;;;;;;;;;;;;;-144.19;47.49;76467.03;6180213;23;19916;-84
2022/03/12 12:16:06;;;;;;;;;;;;;;;-144.19;48.22;76394.19;6181107;23;19916;-85
2022/03/12 12:18:33;;;;;;;;;;;;;;;-144.19;47.64;76333.19;6155924;23;19916;-85
2022/03/12 12:20:59;;;;;;;;;;;;;;;-144.19;48.30;76512.28;6178309;23;19936;-85
2022/03/12 12:23:26;;;;;;;;;;;;;;;-144.19;47.98;76449.31;6154672;23;19916;-84
2022/03/12 12:26:05;;;;;;;;;;;;;;;-144.19;48.68;76520.16;6178141;23;19917;-83
2022/03/12 12:28:31;;;;;;;;;;;;;;;-144.19;49.74;76622.53;6178578;23;19916;-87
2022/03/12 12:30:57;;;;;;;;;;;;;;;-144.19;50.70;76591.03;6153868;23;19920;-83
2022/03/12 12:33:25;;;;;;;;;;;;;;;-144.19;49.60;76547.72;6153924;23;19936;-85
2022/03/12 12:35:52;;;;;;;;;;;;;;;-144.19;49.02;76344.97;6155332;23;19916;-86